Time,TemperatureF,DewpointF,PressureIn,WindDirection,WindDirectionDegrees,WindSpeedMPH,WindSpeedGustMPH,Humidity,HourlyPrecipIn,Conditions,Clouds,dailyrainin,SoftwareType,DateUTC
2013-11-07 00:13:00,54.6,50.0,30.05,West,279,13.0,16.0,85,0.00,,,0.00,weatherlink.com 1.10,2013-11-07 05:13:00,
2013-11-07 00:28:00,54.4,50.0,30.05,WNW,288,4.0,13.0,86,0.00,,,0.00,weatherlink.com 1.10,2013-11-07 05:28:00,
2013-11-07 00:43:00,54.1,50.0,30.04,WNW,287,14.0,14.0,87,0.00,,,0.00,weatherlink.com 1.10,2013-11-07 05:43:00,
2013-11-07 00:58:00,53.9,51.0,30.03,WNW,288,4.0,14.0,88,0.00,,,0.00,weatherlink.com 1.10,2013-11-07 05:58:00,
2013-11-07 01:13:00,53.7,50.0,30.02,West,269,6.0,11.0,88,0.00,,,0.00,weatherlink.com 1.10,2013-11-07 06:13:00,
2013-11-07 01:28:00,53.7,51.0,30.02,West,279,3.0,12.0,89,0.00,,,0.00,weatherlink.com 1.10,2013-11-07 06:28:00,
2013-11-07 01:43:00,53.7,51.0,30.01,WNW,284,3.0,9.0,89,0.00,,,0.00,weatherlink.com 1.10,2013-11-07 06:43:00,
2013-11-07 01:58:00,53.7,51.0,29.99,West,265,3.0,9.0,89,0.00,,,0.00,weatherlink.com 1.10,2013-11-07 06:58:00,
2013-11-07 02:13:00,53.5,51.0,29.98,West,270,3.0,9.0,90,0.00,,,0.00,weatherlink.com 1.10,2013-11-07 07:13:00,
2013-11-07 02:28:00,53.6,51.0,29.98,WNW,288,6.0,11.0,90,0.00,,,0.00,weatherlink.com 1.10,2013-11-07 07:28:00,
2013-11-07 02:43:00,53.8,51.0,29.97,West,277,3.0,7.0,91,0.00,,,0.00,weatherlink.com 1.10,2013-11-07 07:43:00,
2013-11-07 02:58:00,54.0,52.0,29.96,WSW,252,9.0,11.0,91,0.00,,,0.00,weatherlink.com 1.10,2013-11-07 07:58:00,
2013-11-07 03:13:00,54.3,52.0,29.95,WNW,295,8.0,12.0,91,0.00,,,0.00,weatherlink.com 1.10,2013-11-07 08:13:00,
2013-11-07 03:28:00,54.5,52.0,29.95,WNW,298,2.0,11.0,91,0.00,,,0.00,weatherlink.com 1.10,2013-11-07 08:28:00,
2013-11-07 03:43:00,54.4,52.0,29.94,WNW,285,4.0,10.0,92,0.00,,,0.00,weatherlink.com 1.10,2013-11-07 08:43:00,
2013-11-07 03:58:00,54.6,52.0,29.94,WNW,294,5.0,12.0,92,0.00,,,0.00,weatherlink.com 1.10,2013-11-07 08:58:00,
2013-11-07 04:13:00,55.0,53.0,29.93,West,259,4.0,9.0,92,0.00,,,0.00,weatherlink.com 1.10,2013-11-07 09:13:00,
2013-11-07 04:28:00,55.6,53.0,29.93,West,275,5.0,10.0,92,0.00,,,0.00,weatherlink.com 1.10,2013-11-07 09:28:00,
2013-11-07 04:43:00,56.4,54.0,29.92,WNW,294,3.0,11.0,92,0.00,,,0.00,weatherlink.com 1.10,2013-11-07 09:43:00,
2013-11-07 04:58:00,57.5,55.0,29.91,WNW,294,5.0,15.0,91,0.00,,,0.00,weatherlink.com 1.10,2013-11-07 09:58:00,
2013-11-07 05:13:00,58.3,56.0,29.90,West,265,5.0,14.0,91,0.00,,,0.00,weatherlink.com 1.10,2013-11-07 10:13:00,
2013-11-07 05:29:00,58.9,56.0,29.89,SW,233,4.0,17.0,90,0.00,,,0.00,weatherlink.com 1.10,2013-11-07 10:29:00,
2013-11-07 05:44:00,59.0,56.0,29.87,West,269,5.0,12.0,91,0.00,,,0.00,weatherlink.com 1.10,2013-11-07 10:44:00,
2013-11-07 05:59:00,59.2,57.0,29.86,West,267,12.0,16.0,91,0.00,,,0.00,weatherlink.com 1.10,2013-11-07 10:59:00,
2013-11-07 06:14:00,59.5,57.0,29.85,West,276,5.0,14.0,91,0.00,,,0.00,weatherlink.com 1.10,2013-11-07 11:14:00,
2013-11-07 06:29:00,59.7,57.0,29.84,West,260,4.0,12.0,91,0.00,,,0.00,weatherlink.com 1.10,2013-11-07 11:29:00,
2013-11-07 06:44:00,59.9,57.0,29.84,WSW,248,4.0,16.0,90,0.00,,,0.00,weatherlink.com 1.10,2013-11-07 11:44:00,
2013-11-07 06:59:00,60.2,58.0,29.84,SW,234,6.0,22.0,91,0.00,,,0.00,weatherlink.com 1.10,2013-11-07 11:59:00,
2013-11-07 07:14:00,60.3,58.0,29.83,WNW,294,9.0,13.0,91,0.00,,,0.00,weatherlink.com 1.10,2013-11-07 12:14:00,
2013-11-07 07:29:00,60.2,58.0,29.83,West,263,15.0,15.0,91,0.00,,,0.00,weatherlink.com 1.10,2013-11-07 12:29:00,
2013-11-07 07:44:00,60.1,58.0,29.84,WSW,256,4.0,15.0,92,0.00,,,0.00,weatherlink.com 1.10,2013-11-07 12:44:00,
2013-11-07 07:59:00,60.5,58.0,29.83,SW,234,8.0,14.0,92,0.00,,,0.00,weatherlink.com 1.10,2013-11-07 12:59:00,
2013-11-07 08:14:00,61.2,58.0,29.82,West,272,9.0,20.0,90,0.00,,,0.00,weatherlink.com 1.10,2013-11-07 13:14:00,
2013-11-07 08:29:00,62.0,59.0,29.81,West,275,5.0,19.0,88,0.00,,,0.00,weatherlink.com 1.10,2013-11-07 13:29:00,
2013-11-07 08:44:00,62.6,58.0,29.80,West,259,16.0,20.0,86,0.00,,,0.00,weatherlink.com 1.10,2013-11-07 13:44:00,
2013-11-07 08:59:00,62.8,58.0,29.80,West,272,7.0,19.0,85,0.00,,,0.00,weatherlink.com 1.10,2013-11-07 13:59:00,
2013-11-07 09:14:00,63.5,59.0,29.79,West,265,10.0,15.0,84,0.00,,,0.00,weatherlink.com 1.10,2013-11-07 14:14:00,
2013-11-07 09:29:00,64.3,58.0,29.78,West,274,9.0,20.0,81,0.00,,,0.00,weatherlink.com 1.10,2013-11-07 14:29:00,
2013-11-07 09:44:00,65.3,58.0,29.77,WNW,288,10.0,28.0,76,0.00,,,0.00,weatherlink.com 1.10,2013-11-07 14:44:00,
2013-11-07 09:59:00,66.2,57.0,29.77,West,264,10.0,21.0,73,0.00,,,0.00,weatherlink.com 1.10,2013-11-07 14:59:00,
2013-11-07 10:14:00,66.3,57.0,29.77,WNW,290,24.0,24.0,73,0.00,,,0.00,weatherlink.com 1.10,2013-11-07 15:14:00,
2013-11-07 10:44:00,66.7,57.0,29.75,NNW,340,10.0,25.0,70,0.00,,,0.00,weatherlink.com 1.10,2013-11-07 15:44:00,
2013-11-07 10:59:00,66.9,56.0,29.74,WNW,284,28.0,28.0,69,0.00,,,0.00,weatherlink.com 1.10,2013-11-07 15:59:00,
2013-11-07 11:14:00,66.8,56.0,29.73,West,268,10.0,19.0,69,0.00,,,0.00,weatherlink.com 1.10,2013-11-07 16:14:00,
2013-11-07 11:29:00,66.5,56.0,29.73,West,281,11.0,27.0,70,0.00,,,0.00,weatherlink.com 1.10,2013-11-07 16:29:00,
2013-11-07 11:45:00,66.1,56.0,29.71,WNW,302,15.0,18.0,71,0.00,,,0.00,weatherlink.com 1.10,2013-11-07 16:45:00,
2013-11-07 12:00:00,64.5,57.0,29.71,WNW,296,8.0,20.0,77,0.00,,,0.00,weatherlink.com 1.10,2013-11-07 17:00:00,
2013-11-07 12:15:00,63.1,57.0,29.71,NNW,334,8.0,21.0,81,0.01,,,0.01,weatherlink.com 1.10,2013-11-07 17:15:00,
2013-11-07 12:30:00,61.8,57.0,29.71,NW,318,5.0,14.0,85,0.02,,,0.02,weatherlink.com 1.10,2013-11-07 17:30:00,
2013-11-07 12:45:00,61.1,57.0,29.71,WNW,302,5.0,17.0,87,0.04,,,0.04,weatherlink.com 1.10,2013-11-07 17:45:00,
2013-11-07 13:00:00,60.3,57.0,29.70,NW,316,6.0,13.0,87,0.06,,,0.06,weatherlink.com 1.10,2013-11-07 18:00:00,
2013-11-07 13:15:00,60.0,57.0,29.70,NW,309,8.0,11.0,90,0.07,,,0.08,weatherlink.com 1.10,2013-11-07 18:15:00,
2013-11-07 13:30:00,59.6,57.0,29.70,WNW,294,9.0,13.0,90,0.07,,,0.10,weatherlink.com 1.10,2013-11-07 18:30:00,
2013-11-07 13:45:00,59.2,57.0,29.69,WNW,303,8.0,14.0,91,0.07,,,0.11,weatherlink.com 1.10,2013-11-07 18:45:00,
2013-11-07 14:00:00,58.5,56.0,29.69,WNW,297,2.0,12.0,90,0.07,,,0.13,weatherlink.com 1.10,2013-11-07 19:00:00,
2013-11-07 14:15:00,57.9,55.0,29.68,WNW,290,5.0,11.0,91,0.07,,,0.15,weatherlink.com 1.10,2013-11-07 19:15:00,
2013-11-07 14:30:00,57.6,55.0,29.69,NW,311,4.0,14.0,92,0.06,,,0.16,weatherlink.com 1.10,2013-11-07 19:30:00,
2013-11-07 14:45:00,56.9,53.0,29.70,NW,313,9.0,14.0,88,0.05,,,0.16,weatherlink.com 1.10,2013-11-07 19:45:00,
2013-11-07 15:00:00,56.2,52.0,29.70,NW,324,6.0,16.0,87,0.03,,,0.16,weatherlink.com 1.10,2013-11-07 20:00:00,
2013-11-07 15:15:00,55.9,52.0,29.71,NW,308,8.0,16.0,86,0.01,,,0.16,weatherlink.com 1.10,2013-11-07 20:15:00,
2013-11-07 15:30:00,55.7,51.0,29.71,NW,326,9.0,12.0,85,0.00,,,0.16,weatherlink.com 1.10,2013-11-07 20:30:00,
2013-11-07 15:45:00,55.1,51.0,29.73,NW,322,7.0,15.0,85,0.00,,,0.16,weatherlink.com 1.10,2013-11-07 20:45:00,
2013-11-07 16:00:00,54.5,50.0,29.71,NW,304,2.0,17.0,84,0.01,,,0.17,weatherlink.com 1.10,2013-11-07 21:00:00,
2013-11-07 16:15:00,53.9,49.0,29.71,WNW,299,6.0,10.0,84,0.02,,,0.18,weatherlink.com 1.10,2013-11-07 21:15:00,
2013-11-07 16:30:00,53.7,48.0,29.71,WNW,296,15.0,16.0,80,0.02,,,0.18,weatherlink.com 1.10,2013-11-07 21:30:00,
2013-11-07 16:45:00,53.2,47.0,29.73,NNW,328,4.0,16.0,79,0.02,,,0.18,weatherlink.com 1.10,2013-11-07 21:45:00,
2013-11-07 17:00:00,52.1,47.0,29.73,WNW,295,10.0,15.0,82,0.02,,,0.19,weatherlink.com 1.10,2013-11-07 22:00:00,
2013-11-07 17:15:00,51.4,48.0,29.71,NW,316,2.0,9.0,87,0.02,,,0.20,weatherlink.com 1.10,2013-11-07 22:15:00,
2013-11-07 17:30:00,50.8,48.0,29.72,NNW,332,7.0,10.0,89,0.03,,,0.21,weatherlink.com 1.10,2013-11-07 22:30:00,
2013-11-07 17:45:00,50.6,47.0,29.74,NNW,327,6.0,18.0,88,0.03,,,0.21,weatherlink.com 1.10,2013-11-07 22:45:00,
2013-11-07 18:00:00,50.1,47.0,29.73,NW,306,10.0,18.0,89,0.02,,,0.21,weatherlink.com 1.10,2013-11-07 23:00:00,
2013-11-07 18:15:00,49.4,46.0,29.74,WNW,299,8.0,19.0,89,0.01,,,0.21,weatherlink.com 1.10,2013-11-07 23:15:00,
2013-11-07 18:30:00,49.2,46.0,29.75,NNW,327,10.0,19.0,88,0.00,,,0.21,weatherlink.com 1.10,2013-11-07 23:30:00,
2013-11-07 18:45:00,49.0,46.0,29.75,NW,317,10.0,13.0,88,0.00,,,0.21,weatherlink.com 1.10,2013-11-07 23:45:00,
2013-11-07 19:00:00,48.8,45.0,29.75,NW,319,9.0,14.0,88,0.00,,,0.21,weatherlink.com 1.10,2013-11-08 00:00:00,
2013-11-07 19:15:00,48.7,45.0,29.76,NW,306,3.0,15.0,88,0.00,,,0.21,weatherlink.com 1.10,2013-11-08 00:15:00,
2013-11-07 19:30:00,48.7,45.0,29.76,NW,319,4.0,10.0,87,0.00,,,0.21,weatherlink.com 1.10,2013-11-08 00:30:00,
2013-11-07 19:45:00,48.6,45.0,29.77,NW,307,0.0,13.0,87,0.00,,,0.21,weatherlink.com 1.10,2013-11-08 00:45:00,
2013-11-07 20:00:00,48.8,44.0,29.77,NNW,339,7.0,15.0,84,0.00,,,0.21,weatherlink.com 1.10,2013-11-08 01:00:00,
2013-11-07 20:15:00,49.1,43.0,29.78,NNE,13,6.0,11.0,80,0.00,,,0.21,weatherlink.com 1.10,2013-11-08 01:15:00,
2013-11-07 20:30:00,49.2,42.0,29.78,NNW,335,3.0,15.0,77,0.00,,,0.21,weatherlink.com 1.10,2013-11-08 01:30:00,
2013-11-07 20:45:00,49.2,42.0,29.78,NW,306,3.0,11.0,76,0.00,,,0.21,weatherlink.com 1.10,2013-11-08 01:45:00,
2013-11-07 21:00:00,48.5,40.0,29.79,NW,313,7.0,16.0,73,0.00,,,0.21,weatherlink.com 1.10,2013-11-08 02:00:00,
2013-11-07 21:15:00,48.0,40.0,29.79,NE,36,6.0,13.0,73,0.00,,,0.21,weatherlink.com 1.10,2013-11-08 02:15:00,
2013-11-07 21:30:00,47.7,39.0,29.80,NNE,15,5.0,14.0,72,0.00,,,0.21,weatherlink.com 1.10,2013-11-08 02:30:00,
2013-11-07 21:45:00,47.5,39.0,29.80,NNW,348,11.0,16.0,72,0.00,,,0.21,weatherlink.com 1.10,2013-11-08 02:45:00,
2013-11-07 22:00:00,47.0,37.0,29.81,NW,322,3.0,13.0,69,0.00,,,0.21,weatherlink.com 1.10,2013-11-08 03:00:00,
2013-11-07 22:16:00,46.4,35.0,29.81,NW,323,9.0,19.0,65,0.00,,,0.21,weatherlink.com 1.10,2013-11-08 03:16:00,
2013-11-07 22:31:00,46.0,35.0,29.81,NW,321,10.0,19.0,65,0.00,,,0.21,weatherlink.com 1.10,2013-11-08 03:31:00,
2013-11-07 22:46:00,45.4,33.0,29.82,NNW,348,12.0,19.0,63,0.00,,,0.21,weatherlink.com 1.10,2013-11-08 03:46:00,
2013-11-07 23:01:00,45.0,33.0,29.82,NW,317,4.0,18.0,62,0.00,,,0.21,weatherlink.com 1.10,2013-11-08 04:01:00,
2013-11-07 23:16:00,44.5,33.0,29.82,NNE,28,4.0,12.0,64,0.00,,,0.21,weatherlink.com 1.10,2013-11-08 04:16:00,
2013-11-07 23:31:00,44.2,33.0,29.82,NNW,327,8.0,15.0,64,0.00,,,0.21,weatherlink.com 1.10,2013-11-08 04:31:00,
2013-11-07 23:46:00,43.9,32.0,29.82,NW,313,2.0,12.0,64,0.00,,,0.21,weatherlink.com 1.10,2013-11-08 04:46:00,